createdAt,value
2022-08-30T00:01:27.015Z,95.40
2022-08-30T00:03:56.151Z,95.40
2022-08-30T00:06:24.722Z,95.50
2022-08-30T00:08:54.495Z,95.50
2022-08-30T00:11:25.685Z,95.50
2022-08-30T00:13:56.649Z,95.60
2022-08-30T00:16:26.456Z,95.60
2022-08-30T00:18:54.558Z,95.70
2022-08-30T00:21:23.588Z,95.70
2022-08-30T00:23:52.922Z,95.70
2022-08-30T00:26:20.952Z,95.70
2022-08-30T00:28:49.170Z,96.10
2022-08-30T00:31:17.217Z,95.80
2022-08-30T00:33:45.449Z,95.80
2022-08-30T00:36:13.636Z,95.90
2022-08-30T00:38:41.708Z,96.00
2022-08-30T00:41:11.066Z,96.00
2022-08-30T00:43:39.169Z,96.00
2022-08-30T00:46:08.676Z,96.00
2022-08-30T00:48:41.665Z,96.10
2022-08-30T00:51:12.094Z,96.10
2022-08-30T00:53:43.727Z,96.20
2022-08-30T00:56:13.781Z,96.20
2022-08-30T00:58:46.436Z,96.30
2022-08-30T01:01:15.157Z,96.30
2022-08-30T01:03:44.424Z,96.30
2022-08-30T01:06:15.181Z,96.40
2022-08-30T01:08:43.574Z,96.40
2022-08-30T01:11:14.913Z,96.50
2022-08-30T01:13:43.113Z,96.50
2022-08-30T01:16:11.633Z,96.50
2022-08-30T01:18:40.048Z,96.60
2022-08-30T01:21:16.921Z,96.70
2022-08-30T01:23:49.287Z,96.80
2022-08-30T01:26:19.773Z,96.70
2022-08-30T01:28:54.692Z,96.80
2022-08-30T01:31:23.582Z,96.80
2022-08-30T01:33:54.446Z,96.90
2022-08-30T01:36:22.666Z,96.90
2022-08-30T01:38:55.450Z,96.90
2022-08-30T01:41:26.559Z,97.00
2022-08-30T01:43:57.099Z,97.10
2022-08-30T01:46:28.241Z,97.20
2022-08-30T01:48:58.423Z,97.20
2022-08-30T01:51:28.421Z,97.20
2022-08-30T01:53:58.836Z,97.20
2022-08-30T01:56:28.687Z,97.30
2022-08-30T01:59:02.334Z,97.20
2022-08-30T02:01:32.946Z,97.30
2022-08-30T02:04:01.763Z,97.30
2022-08-30T02:06:29.985Z,97.30
2022-08-30T02:08:59.812Z,97.30
2022-08-30T02:11:27.988Z,97.30
2022-08-30T02:13:56.372Z,97.30
2022-08-30T02:16:26.781Z,97.50
2022-08-30T02:18:57.107Z,97.50
2022-08-30T02:21:25.788Z,97.50
2022-08-30T02:23:53.942Z,97.50
2022-08-30T02:26:23.400Z,97.60
2022-08-30T02:28:52.240Z,97.60
2022-08-30T02:31:21.780Z,97.70
2022-08-30T02:33:51.761Z,97.70
2022-08-30T02:36:21.286Z,97.80
2022-08-30T02:38:49.738Z,97.80
2022-08-30T02:41:17.858Z,97.80
2022-08-30T02:43:47.764Z,97.80
2022-08-30T02:46:15.869Z,97.80
2022-08-30T02:48:44.111Z,97.90
2022-08-30T02:51:14.905Z,97.80
2022-08-30T02:53:44.804Z,97.80
2022-08-30T02:56:14.571Z,97.90
2022-08-30T02:58:43.499Z,97.90
2022-08-30T03:01:14.903Z,97.90
2022-08-30T03:03:45.552Z,97.90
2022-08-30T03:06:13.684Z,97.90
2022-08-30T03:08:42.347Z,97.90
2022-08-30T03:11:10.804Z,98.20
2022-08-30T03:13:38.833Z,97.90
2022-08-30T03:16:07.197Z,97.90
2022-08-30T03:18:37.505Z,98.00
2022-08-30T03:21:11.805Z,98.00
2022-08-30T03:23:40.858Z,98.10
2022-08-30T03:26:09.083Z,98.50
2022-08-30T03:28:37.263Z,98.20
2022-08-30T03:31:05.645Z,98.20
2022-08-30T03:33:33.742Z,98.30
2022-08-30T03:36:03.334Z,98.40
2022-08-30T03:38:31.516Z,98.50
2022-08-30T03:40:59.784Z,98.60
2022-08-30T03:43:28.054Z,98.70
2022-08-30T03:45:57.483Z,98.80
2022-08-30T03:48:26.126Z,98.90
2022-08-30T03:50:54.560Z,99.00
2022-08-30T03:53:27.109Z,99.00
2022-08-30T03:55:55.644Z,99.00
2022-08-30T03:58:25.654Z,99.10
2022-08-30T04:00:53.700Z,99.10
2022-08-30T04:03:25.894Z,99.10
2022-08-30T04:05:54.715Z,99.10
2022-08-30T04:08:24.923Z,99.20
2022-08-30T04:10:53.738Z,99.20
2022-08-30T04:13:22.595Z,99.20
2022-08-30T04:15:51.280Z,99.20
2022-08-30T04:18:19.555Z,99.30
2022-08-30T04:20:47.731Z,99.30
2022-08-30T04:23:15.985Z,99.30
2022-08-30T04:25:45.515Z,99.30
2022-08-30T04:28:13.563Z,99.40
2022-08-30T04:30:43.635Z,99.30
2022-08-30T04:33:12.656Z,99.30
2022-08-30T04:35:43.353Z,99.30
2022-08-30T04:38:11.596Z,99.30
2022-08-30T04:40:39.783Z,99.30
2022-08-30T04:43:11.635Z,99.30
2022-08-30T04:45:41.257Z,99.30
2022-08-30T04:48:10.380Z,99.30
2022-08-30T04:50:38.638Z,99.30
2022-08-30T04:53:07.048Z,99.70
2022-08-30T04:55:35.237Z,99.40
2022-08-30T04:58:03.274Z,99.40
2022-08-30T05:00:33.304Z,99.40
2022-08-30T05:03:02.124Z,99.30
2022-08-30T05:05:42.174Z,99.30
2022-08-30T05:08:12.686Z,99.30
2022-08-30T05:10:41.386Z,99.30
2022-08-30T05:13:09.667Z,99.20
2022-08-30T05:15:40.361Z,99.20
2022-08-30T05:18:13.366Z,99.20
2022-08-30T05:20:43.197Z,99.20
2022-08-30T05:23:11.362Z,99.20
2022-08-30T05:25:41.312Z,99.30
2022-08-30T05:28:10.080Z,99.30
2022-08-30T05:30:39.634Z,99.30
2022-08-30T05:33:07.680Z,99.30
2022-08-30T05:35:35.941Z,99.40
2022-08-30T05:38:04.267Z,99.40
2022-08-30T05:40:32.331Z,99.30
2022-08-30T05:43:00.601Z,99.40
2022-08-30T05:45:28.648Z,99.40
2022-08-30T05:47:58.229Z,99.30
2022-08-30T05:50:26.439Z,99.30
2022-08-30T05:52:54.541Z,99.20
2022-08-30T05:55:22.851Z,99.30
2022-08-30T05:57:51.126Z,99.40
2022-08-30T06:00:20.205Z,99.40
2022-08-30T06:02:48.285Z,99.50
2022-08-30T06:05:17.908Z,99.90
2022-08-30T06:07:46.100Z,99.60
2022-08-30T06:10:16.790Z,99.60
2022-08-30T06:12:45.486Z,99.60
2022-08-30T06:15:13.746Z,99.60
2022-08-30T06:17:41.838Z,99.50
2022-08-30T06:20:11.134Z,99.50
2022-08-30T06:22:40.963Z,99.50
2022-08-30T06:25:10.391Z,99.50
2022-08-30T06:27:38.610Z,99.40
2022-08-30T06:30:11.062Z,99.40
2022-08-30T06:32:39.372Z,99.40
2022-08-30T06:35:08.920Z,99.30
2022-08-30T06:37:37.025Z,99.20
2022-08-30T06:40:07.999Z,99.10
2022-08-30T06:42:36.045Z,99.10
2022-08-30T06:45:10.344Z,98.90
2022-08-30T06:47:39.798Z,98.80
2022-08-30T06:50:12.108Z,98.60
2022-08-30T06:52:42.496Z,98.50
2022-08-30T06:55:14.121Z,98.40
2022-08-30T06:57:42.301Z,98.20
2022-08-30T07:00:14.547Z,97.90
2022-08-30T07:02:43.030Z,97.70
2022-08-30T07:05:18.011Z,97.40
2022-08-30T07:07:46.795Z,96.90
2022-08-30T07:10:17.481Z,96.60
2022-08-30T07:12:45.697Z,96.40
2022-08-30T07:15:14.530Z,96.10
2022-08-30T07:18:00.310Z,95.60
2022-08-30T07:20:40.370Z,95.20
2022-08-30T07:23:09.574Z,94.70
2022-08-30T07:25:39.797Z,94.30
2022-08-30T07:28:09.341Z,94.10
2022-08-30T07:30:38.103Z,93.90
2022-08-30T07:33:06.434Z,93.40
2022-08-30T07:35:34.956Z,93.00
2022-08-30T07:38:03.302Z,92.70
2022-08-30T07:40:31.678Z,92.20
2022-08-30T07:43:02.305Z,92.00
2022-08-30T07:45:30.397Z,92.00
2022-08-30T07:48:00.973Z,91.90
2022-08-30T07:50:29.252Z,91.80
2022-08-30T07:52:57.386Z,91.50
2022-08-30T07:55:25.680Z,91.30
2022-08-30T07:57:53.796Z,91.10
2022-08-30T08:00:23.446Z,90.50
2022-08-30T08:02:53.406Z,90.10
2022-08-30T08:05:24.724Z,89.40
2022-08-30T08:07:53.267Z,89.00
2022-08-30T08:10:21.746Z,88.50
2022-08-30T08:12:49.760Z,87.60
2022-08-30T08:15:20.198Z,87.20
2022-08-30T08:17:51.910Z,86.10
2022-08-30T08:20:20.518Z,85.30
2022-08-30T08:22:48.513Z,84.40
2022-08-30T08:25:17.055Z,84.30
2022-08-30T08:27:47.397Z,84.70
2022-08-30T08:30:15.823Z,84.40
2022-08-30T08:32:43.905Z,84.20
2022-08-30T08:35:13.869Z,83.40
2022-08-30T08:37:42.062Z,83.40
2022-08-30T08:40:14.163Z,83.20
2022-08-30T08:42:54.888Z,83.20
2022-08-30T08:45:27.545Z,82.80
2022-08-30T08:48:01.432Z,82.50
2022-08-30T08:50:34.045Z,82.10
2022-08-30T08:53:45.207Z,80.40
2022-08-30T08:56:15.169Z,80.10
2022-08-30T08:58:44.629Z,79.60
2022-08-30T09:01:15.400Z,79.40
2022-08-30T09:03:45.119Z,79.10
2022-08-30T09:06:36.395Z,78.30
2022-08-30T09:09:07.744Z,78.10
2022-08-30T09:11:38.214Z,77.80
2022-08-30T09:14:10.356Z,77.60
2022-08-30T09:17:03.410Z,77.00
2022-08-30T09:19:34.888Z,76.40
2022-08-30T09:22:07.871Z,75.80
2022-08-30T09:24:43.918Z,76.00
2022-08-30T09:27:18.919Z,76.00
2022-08-30T09:29:54.944Z,76.30
2022-08-30T09:32:28.124Z,76.40
2022-08-30T09:34:56.160Z,76.50
2022-08-30T09:37:32.018Z,75.30
2022-08-30T09:40:01.097Z,75.20
2022-08-30T09:42:32.411Z,74.50
2022-08-30T09:45:11.663Z,74.10
2022-08-30T09:47:42.555Z,74.20
2022-08-30T09:50:14.061Z,75.40
2022-08-30T09:53:09.882Z,75.90
2022-08-30T09:55:53.175Z,75.40
2022-08-30T09:58:30.491Z,74.00
2022-08-30T10:01:05.682Z,74.10
2022-08-30T10:03:40.497Z,73.70
2022-08-30T10:06:16.465Z,72.60
2022-08-30T10:08:58.847Z,72.90
2022-08-30T10:11:34.175Z,72.00
2022-08-30T10:14:27.576Z,72.60
2022-08-30T10:17:03.697Z,72.40
2022-08-30T10:19:43.594Z,71.60
2022-08-30T10:22:17.070Z,71.10
2022-08-30T10:24:51.535Z,70.20
2022-08-30T10:27:24.898Z,70.00
2022-08-30T10:29:59.811Z,69.70
2022-08-30T10:32:34.961Z,69.90
2022-08-30T10:35:07.273Z,70.00
2022-08-30T10:37:40.043Z,68.50
2022-08-30T10:40:33.721Z,68.00
2022-08-30T10:43:05.889Z,68.10
2022-08-30T10:45:38.186Z,67.90
2022-08-30T10:48:17.412Z,67.20
2022-08-30T10:50:55.842Z,66.80
2022-08-30T10:53:31.233Z,66.00
2022-08-30T10:56:06.584Z,66.60
2022-08-30T10:58:35.576Z,65.50
2022-08-30T11:01:18.978Z,66.00
2022-08-30T11:04:36.417Z,66.00
2022-08-30T11:07:18.005Z,65.70
2022-08-30T11:10:01.040Z,65.50
2022-08-30T11:12:54.680Z,65.10
2022-08-30T11:15:25.167Z,64.10
2022-08-30T11:17:59.831Z,63.10
2022-08-30T11:20:36.292Z,64.00
2022-08-30T11:23:33.473Z,64.10
2022-08-30T11:26:05.542Z,63.00
2022-08-30T11:29:07.753Z,63.70
2022-08-30T11:31:39.725Z,62.90
2022-08-30T11:34:11.119Z,60.10
2022-08-30T11:39:57.617Z,59.60
2022-08-30T11:42:36.831Z,58.70
2022-08-30T11:45:42.858Z,58.60
2022-08-30T11:48:54.367Z,58.70
2022-08-30T11:52:26.241Z,58.60
2022-08-30T11:54:59.983Z,58.90
2022-08-30T11:57:38.063Z,58.40
2022-08-30T12:00:11.123Z,59.10
2022-08-30T12:02:55.337Z,59.20
2022-08-30T12:05:53.647Z,59.60
2022-08-30T12:08:45.366Z,58.70
2022-08-30T12:11:54.607Z,57.50
2022-08-30T12:14:49.081Z,56.80
2022-08-30T12:17:46.847Z,56.70
2022-08-30T12:20:23.231Z,57.20
2022-08-30T12:22:53.779Z,57.00
2022-08-30T12:25:29.020Z,56.70
2022-08-30T12:28:15.599Z,56.40
2022-08-30T12:30:52.551Z,56.40
2022-08-30T12:33:41.327Z,56.10
2022-08-30T12:36:14.377Z,55.60
2022-08-30T12:38:42.973Z,55.00
2022-08-30T12:41:21.057Z,55.20
2022-08-30T12:43:52.297Z,55.50
2022-08-30T12:46:23.127Z,54.50
2022-08-30T12:48:51.533Z,54.10
2022-08-30T12:51:35.206Z,54.20
2022-08-30T12:54:10.365Z,54.00
2022-08-30T12:57:01.417Z,53.80
2022-08-30T12:59:54.146Z,53.70
2022-08-30T13:02:27.664Z,53.60
2022-08-30T13:04:57.557Z,53.80
2022-08-30T13:07:32.557Z,53.60
2022-08-30T13:10:14.387Z,54.20
2022-08-30T13:12:58.352Z,53.90
2022-08-30T13:15:32.490Z,52.70
2022-08-30T13:18:27.058Z,52.60
2022-08-30T13:21:11.383Z,52.60
2022-08-30T13:23:40.711Z,52.60
2022-08-30T13:26:09.511Z,53.00
2022-08-30T13:28:47.980Z,52.40
2022-08-30T13:31:17.317Z,52.50
2022-08-30T13:33:46.866Z,52.20
2022-08-30T13:36:15.431Z,51.80
2022-08-30T13:38:43.697Z,52.40
2022-08-30T13:41:11.919Z,51.60
2022-08-30T13:46:28.475Z,51.90
2022-08-30T13:49:03.565Z,51.60
2022-08-30T13:51:32.281Z,51.60
2022-08-30T13:54:01.206Z,51.70
2022-08-30T13:56:31.855Z,51.40
2022-08-30T13:59:00.047Z,51.10
2022-08-30T14:02:07.073Z,50.70
2022-08-30T14:04:21.608Z,50.80
2022-08-30T14:09:38.619Z,50.60
2022-08-30T14:12:07.145Z,50.90
2022-08-30T14:14:42.438Z,50.50
2022-08-30T14:17:12.425Z,50.40
2022-08-30T14:19:42.070Z,50.30
2022-08-30T14:22:10.091Z,50.20
2022-08-30T14:24:38.786Z,50.10
2022-08-30T14:27:07.111Z,50.10
2022-08-30T14:29:36.142Z,49.60
2022-08-30T14:32:05.938Z,49.80
2022-08-30T14:34:34.221Z,50.00
2022-08-30T14:37:06.936Z,49.70
2022-08-30T14:39:37.453Z,49.40
2022-08-30T14:42:07.509Z,48.80
2022-08-30T14:44:55.282Z,48.60
2022-08-30T14:47:29.569Z,48.80
2022-08-30T14:50:01.114Z,49.10
2022-08-30T14:52:30.862Z,49.20
2022-08-30T14:55:05.147Z,48.90
2022-08-30T14:57:38.305Z,48.70
2022-08-30T15:00:09.945Z,49.30
2022-08-30T15:02:38.059Z,48.80
2022-08-30T15:05:08.523Z,48.60
2022-08-30T15:07:38.764Z,48.60
2022-08-30T15:10:07.969Z,48.30
2022-08-30T15:12:36.428Z,48.20
2022-08-30T15:15:04.837Z,47.70
2022-08-30T15:17:33.926Z,47.40
2022-08-30T15:20:01.952Z,47.30
2022-08-30T15:22:29.942Z,47.00
2022-08-30T15:25:01.638Z,47.10
2022-08-30T15:27:29.603Z,47.40
2022-08-30T15:29:58.935Z,47.30
2022-08-30T15:32:27.318Z,47.00
2022-08-30T15:34:55.838Z,47.10
2022-08-30T15:37:24.332Z,47.30
2022-08-30T15:39:53.105Z,47.70
2022-08-30T15:42:22.550Z,47.70
2022-08-30T15:44:52.182Z,47.60
2022-08-30T15:47:22.500Z,47.70
2022-08-30T15:49:57.120Z,47.90
2022-08-30T15:52:26.976Z,48.00
2022-08-30T15:54:55.113Z,47.90
2022-08-30T15:57:25.428Z,48.10
2022-08-30T15:59:54.575Z,47.90
2022-08-30T16:02:27.558Z,47.80
2022-08-30T16:04:56.250Z,48.10
2022-08-30T16:07:24.283Z,47.80
2022-08-30T16:09:53.763Z,48.10
2022-08-30T16:12:23.722Z,47.70
2022-08-30T16:14:53.338Z,47.50
2022-08-30T16:17:21.487Z,47.30
2022-08-30T16:19:50.131Z,47.40
2022-08-30T16:22:18.638Z,47.60
2022-08-30T16:24:50.739Z,47.60
2022-08-30T16:27:18.736Z,47.60
2022-08-30T16:29:50.058Z,48.20
2022-08-30T16:32:20.005Z,47.80
2022-08-30T16:34:47.967Z,47.70
2022-08-30T16:37:15.951Z,47.60
2022-08-30T16:39:46.656Z,47.50
2022-08-30T16:42:20.813Z,47.30
2022-08-30T16:44:49.801Z,47.50
2022-08-30T16:47:19.418Z,47.50
2022-08-30T16:49:47.693Z,47.50
2022-08-30T16:52:15.762Z,47.60
2022-08-30T16:54:46.427Z,47.50
2022-08-30T16:57:20.297Z,47.50
2022-08-30T16:59:52.419Z,47.60
2022-08-30T17:02:22.068Z,47.70
2022-08-30T17:04:53.097Z,47.80
2022-08-30T17:07:22.325Z,47.80
2022-08-30T17:09:50.837Z,47.90
2022-08-30T17:12:18.842Z,48.00
2022-08-30T17:14:47.435Z,48.00
2022-08-30T17:17:15.913Z,48.20
2022-08-30T17:19:45.811Z,48.40
2022-08-30T17:22:15.222Z,48.60
2022-08-30T17:24:43.239Z,48.80
2022-08-30T17:27:11.710Z,49.00
2022-08-30T17:29:39.926Z,49.30
2022-08-30T17:32:08.398Z,49.50
2022-08-30T17:34:37.000Z,49.70
2022-08-30T17:37:06.439Z,49.90
2022-08-30T17:39:34.608Z,50.00
2022-08-30T17:42:04.312Z,50.30
2022-08-30T17:44:36.383Z,50.40
2022-08-30T17:47:04.773Z,50.70
2022-08-30T17:49:33.485Z,51.00
2022-08-30T17:52:02.826Z,51.20
2022-08-30T17:54:34.316Z,51.50
2022-08-30T17:57:10.787Z,51.70
2022-08-30T17:59:39.338Z,52.00
2022-08-30T18:02:11.134Z,52.30
2022-08-30T18:04:39.941Z,52.40
2022-08-30T18:07:12.055Z,52.70
2022-08-30T18:09:42.521Z,53.00
2022-08-30T18:12:11.485Z,53.10
2022-08-30T18:14:39.619Z,53.40
2022-08-30T18:17:08.145Z,53.50
2022-08-30T18:19:37.306Z,53.80
2022-08-30T18:22:14.943Z,53.90
2022-08-30T18:24:44.587Z,54.10
2022-08-30T18:27:13.328Z,54.30
2022-08-30T18:29:41.976Z,54.50
2022-08-30T18:32:11.163Z,54.70
2022-08-30T18:34:40.393Z,54.90
2022-08-30T18:40:00.930Z,55.30
2022-08-30T18:42:29.194Z,55.70
2022-08-30T18:44:57.154Z,55.90
2022-08-30T18:47:25.313Z,56.10
2022-08-30T18:49:54.604Z,56.30
2022-08-30T18:52:23.183Z,56.60
2022-08-30T18:54:52.938Z,56.80
2022-08-30T18:57:23.509Z,57.00
2022-08-30T18:59:51.672Z,57.20
2022-08-30T19:02:20.192Z,57.50
2022-08-30T19:04:49.113Z,57.70
2022-08-30T19:07:19.120Z,58.00
2022-08-30T19:09:47.865Z,58.20
2022-08-30T19:12:16.227Z,58.50
2022-08-30T19:14:45.606Z,58.90
2022-08-30T19:17:14.270Z,59.10
2022-08-30T19:19:49.138Z,59.40
2022-08-30T19:22:19.248Z,59.70
2022-08-30T19:24:47.805Z,60.10
2022-08-30T19:27:19.049Z,60.60
2022-08-30T19:29:53.053Z,60.90
2022-08-30T19:32:22.258Z,61.20
2022-08-30T19:34:50.581Z,61.50
2022-08-30T19:37:19.293Z,61.80
2022-08-30T19:39:47.541Z,62.20
2022-08-30T19:42:15.745Z,62.70
2022-08-30T19:44:44.593Z,63.00
2022-08-30T19:47:13.902Z,63.40
2022-08-30T19:49:41.883Z,63.70
2022-08-30T19:52:09.957Z,64.20
2022-08-30T19:54:38.439Z,64.60
2022-08-30T19:57:09.937Z,65.00
2022-08-30T19:59:38.906Z,65.40
2022-08-30T20:02:07.525Z,65.80
2022-08-30T20:04:38.109Z,66.00
2022-08-30T20:07:09.300Z,66.30
2022-08-30T20:09:37.722Z,66.80
2022-08-30T20:12:06.236Z,67.20
2022-08-30T20:14:34.998Z,67.30
2022-08-30T20:17:03.033Z,67.80
2022-08-30T20:19:32.052Z,68.20
2022-08-30T20:22:05.590Z,68.70
2022-08-30T20:24:27.445Z,55.10
2022-08-30T20:27:09.684Z,69.40
2022-08-30T20:29:40.188Z,69.70
2022-08-30T20:32:08.574Z,70.00
2022-08-30T20:34:36.593Z,70.40
2022-08-30T20:37:09.786Z,70.70
2022-08-30T20:39:39.188Z,70.70
2022-08-30T20:42:07.705Z,71.20
2022-08-30T20:44:35.713Z,71.50
2022-08-30T20:47:05.151Z,72.00
2022-08-30T20:49:33.640Z,72.50
2022-08-30T20:52:01.678Z,72.80
2022-08-30T20:54:34.501Z,73.40
2022-08-30T20:57:02.755Z,73.90
2022-08-30T20:59:30.877Z,74.20
2022-08-30T21:02:00.667Z,75.50
2022-08-30T21:04:31.573Z,75.20
2022-08-30T21:06:59.977Z,75.70
2022-08-30T21:09:28.310Z,76.10
2022-08-30T21:11:57.838Z,76.70
2022-08-30T21:14:25.892Z,76.80
2022-08-30T21:16:54.366Z,77.20
2022-08-30T21:19:22.431Z,77.50
2022-08-30T21:21:50.442Z,77.80
2022-08-30T21:24:18.539Z,78.00
2022-08-30T21:26:46.556Z,78.20
2022-08-30T21:29:16.166Z,78.60
2022-08-30T21:31:44.565Z,78.70
2022-08-30T21:34:17.203Z,78.90
2022-08-30T21:36:48.106Z,79.20
2022-08-30T21:39:19.278Z,79.50
2022-08-30T21:41:48.050Z,79.60
2022-08-30T21:44:20.134Z,79.80
2022-08-30T21:46:49.666Z,80.00
2022-08-30T21:49:20.346Z,80.20
2022-08-30T21:51:49.871Z,80.30
2022-08-30T21:54:19.231Z,80.40
2022-08-30T21:56:49.159Z,80.60
2022-08-30T21:59:19.575Z,80.90
2022-08-30T22:01:48.217Z,81.00
2022-08-30T22:04:16.882Z,81.10
2022-08-30T22:06:48.095Z,81.30
2022-08-30T22:09:18.068Z,81.50
2022-08-30T22:11:47.228Z,81.80
2022-08-30T22:14:16.275Z,81.90
2022-08-30T22:16:46.689Z,82.00
2022-08-30T22:19:16.941Z,82.20
2022-08-30T22:21:48.053Z,82.40
2022-08-30T22:24:17.096Z,82.60
2022-08-30T22:26:46.418Z,82.70
2022-08-30T22:29:14.933Z,82.80
2022-08-30T22:31:45.756Z,83.00
2022-08-30T22:34:13.801Z,83.20
2022-08-30T22:36:42.611Z,83.40
2022-08-30T22:39:10.778Z,83.50
2022-08-30T22:41:41.046Z,83.60
2022-08-30T22:44:09.040Z,83.80
2022-08-30T22:46:38.203Z,83.90
2022-08-30T22:49:09.801Z,84.10
2022-08-30T22:51:38.623Z,84.20
2022-08-30T22:54:08.359Z,84.30
2022-08-30T22:56:38.133Z,84.50
2022-08-30T22:59:07.236Z,84.60
2022-08-30T23:01:38.511Z,85.60
2022-08-30T23:04:09.431Z,84.70
2022-08-30T23:06:37.616Z,84.90
2022-08-30T23:09:06.684Z,85.00
2022-08-30T23:11:35.769Z,85.10
2022-08-30T23:14:04.367Z,85.10
2022-08-30T23:16:33.789Z,85.10
2022-08-30T23:19:01.909Z,85.10
2022-08-30T23:21:31.839Z,85.20
2022-08-30T23:24:18.151Z,85.30
2022-08-30T23:27:04.943Z,85.30
2022-08-30T23:29:51.540Z,85.40
2022-08-30T23:32:37.166Z,85.70
2022-08-30T23:35:29.067Z,85.80
2022-08-30T23:38:16.841Z,86.00
2022-08-30T23:41:02.941Z,86.10
2022-08-30T23:43:48.508Z,86.20
2022-08-30T23:46:34.684Z,86.40
2022-08-30T23:49:20.273Z,86.50
2022-08-30T23:52:05.895Z,86.50
2022-08-30T23:54:54.960Z,86.60
2022-08-30T23:57:44.453Z,86.70
